Архив погоды в Хвалынске

Метеограмма Хвалынск
Понедельник, 25 Мая
Время местн. Темп Ветер Видим Явления Облачность нижн/средн/верх Атм. давл. Влжн Точка росы ВНГО R Сост. почвы Tg s
Напр Скр Прв ур.ст ур.м изм
18:00 +19.4° Ю-В 1 - 20 км - облачно с прояснениями 762 768 +0.1 37% +4.2° - - - - -
15:00 +20.6° Ю 3 - 20 км - переменная облачность 762 768 +0.4 35% +4.5° 1.5 км - - - -
12:00 +20.4° З 2 - 20 км - переменная облачность 762 768 +0.4 35% +4.3° 1.5 км - - - -
09:00 +17.3° Ю 3 - 20 км облака рассеиваются {ливневые осадки} ясно 762 767 +0.6 61% +9.8° более 2.5 км - - - -
06:00 +11° Ю 4 - 20 км небо без изменений {ливневые осадки} облачно 761 767 +0.8 83% +8.3° - - Сухая (без трещин) - -
03:00 +12.2° Ю,Ю-З 3 - 20 км ливневый дождь облачно 761 767 +0.5 70% +6.8° 1 км - - - -
00:00 +11.9° З 1 - 50 км - облачно 760 766 +0.8 71% +6.8° - - - - -
Воскресенье, 24 Мая
Время местн. Темп Ветер Видим Явления Облачность нижн/средн/верх Атм. давл. Влжн Точка росы ВНГО R Сост. почвы Tg s
Напр Скр Прв ур.ст ур.м изм
21:00 +12.6° З 2 - 20 км - облачно 759 765 +0.8 65% +6.3° - - - - -
18:00 +16.3° З 2 - 20 км - облачно с прояснениями 759 764 +0.7 53% +6.8° 1.5 км - - - -
15:00 +18° З 3 - 20 км - переменная облачность 758 763 +1.4 49% +7.2° 1.5 км - - - -
12:00 +16.2° З 4 - 20 км - переменная облачность 756 762 +2.2 59% +8.1° 1.5 км - - - -
09:00 +13.1° З 4 - 20 км - переменная облачность 754 760 +3 73% +8.3° 1.5 км - - - -
06:00 +11.2° З 2 - 20 км - облачно 751 757 +2.6 87% +9.2° 600 м - Влажная (без луж) - -
03:00 +11.7° З 1 - 20 км ливневый дождь облачно 749 754 -0.2 93% +10.6° 1 км - - - -
00:00 +12° С 1 - 50 км небо без изменений {ливневые осадки} облачно 749 755 -1.3 85% +9.5° 1 км - - - -
Суббота, 23 Мая
Время местн. Темп Ветер Видим Явления Облачность нижн/средн/верх Атм. давл. Влжн Точка росы ВНГО R Сост. почвы Tg s
Напр Скр Прв ур.ст ур.м изм
21:00 +11.4° С 5 - 10 км слабый ливневый дождь облачно 750 756 +0.2 92% +10.1° 1 км - - - -
18:00 +14.4° С 4 - 20 км - облачно 750 756 -1.4 67% +8.3° - - - - -
15:00 +15.4° С,С-В 5 - 20 км - облачно 751 757 -1.2 59% +7.5° - - - - -
12:00 +14.1° С 4 - 20 км - облачно 752 758 -0.2 62% +6.9° - - - - -
09:00 +11.4° С,С-В 5 - 20 км - облачно 753 759 -0.2 73% +6.8° - - - - -
06:00 +10.3° С 2 - 20 км - облачно 753 759 +0.7 71% +5.3° - - Сухая (без трещин) - -
03:00 +10° С-З 2 - 20 км - облачно 752 758 +0.8 66% +3.9° - - - - -
00:00 +13.2° З 2 - 50 км - облачно 751 757 +0.2 46% +1.8° - - - - -
Пятница, 22 Мая
Время местн. Темп Ветер Видим Явления Облачность нижн/средн/верх Атм. давл. Влжн Точка росы ВНГО R Сост. почвы Tg s
Напр Скр Прв ур.ст ур.м изм
21:00 +14.2° З 2 - 20 км - облачно 751 757 +0.2 41% +1.2° - - - - -
18:00 +15.7° Ю,Ю-В 2 - 20 км - облачно 751 757 -0.3 38% +1.4° более 2.5 км - - - -
15:00 +15.6° Ю,Ю-В 4 - 20 км - облачно 751 757 +0.1 37% +1° 1.5 км - - - -